createdAt,value
2022-11-26T00:00:53.778Z,3.70
2022-11-26T00:03:20.942Z,4.57
2022-11-26T00:05:50.930Z,4.07
2022-11-26T00:08:20.352Z,3.70
2022-11-26T00:10:49.483Z,3.27
2022-11-26T00:13:18.519Z,3.73
2022-11-26T00:15:45.250Z,4.03
2022-11-26T00:18:13.144Z,3.93
2022-11-26T00:20:40.194Z,4.40
2022-11-26T00:23:07.415Z,4.00
2022-11-26T00:25:40.228Z,5.03
2022-11-26T00:28:24.448Z,4.27
2022-11-26T00:30:51.190Z,4.63
2022-11-26T00:33:17.923Z,4.20
2022-11-26T00:35:46.970Z,3.63
2022-11-26T00:38:17.791Z,3.57
2022-11-26T00:40:44.522Z,4.50
2022-11-26T00:43:16.103Z,3.83
2022-11-26T00:45:42.953Z,3.90
2022-11-26T00:48:09.706Z,4.20
2022-11-26T00:50:42.655Z,2.70
2022-11-26T00:53:12.877Z,3.60
2022-11-26T00:55:42.340Z,3.50
2022-11-26T00:58:34.121Z,4.10
2022-11-26T01:01:00.833Z,3.53
2022-11-26T01:03:27.600Z,4.60
2022-11-26T01:05:56.733Z,4.50
2022-11-26T01:08:36.183Z,4.33
2022-11-26T01:11:04.533Z,3.93
2022-11-26T01:13:31.774Z,3.30
2022-11-26T01:16:00.463Z,4.70
2022-11-26T01:18:27.392Z,3.67
2022-11-26T01:20:54.106Z,4.03
2022-11-26T01:23:20.926Z,3.20
2022-11-26T01:25:47.821Z,3.53
2022-11-26T01:28:17.611Z,3.10
2022-11-26T01:30:45.006Z,2.40
2022-11-26T01:33:11.739Z,3.23
2022-11-26T01:35:38.603Z,2.80
2022-11-26T01:38:05.538Z,2.60
2022-11-26T01:40:47.041Z,3.40
2022-11-26T01:43:25.163Z,3.23
2022-11-26T01:45:51.892Z,3.20
2022-11-26T01:48:32.893Z,2.97
2022-11-26T01:51:12.584Z,2.83
2022-11-26T01:53:42.267Z,3.10
2022-11-26T01:56:22.672Z,2.80
2022-11-26T01:58:54.063Z,2.40
2022-11-26T02:01:21.220Z,3.33
2022-11-26T02:04:17.932Z,2.60
2022-11-26T02:06:47.190Z,2.80
2022-11-26T02:09:14.397Z,2.43
2022-11-26T02:11:41.253Z,1.70
2022-11-26T02:14:12.790Z,1.80
2022-11-26T02:16:47.608Z,1.70
2022-11-26T02:19:32.614Z,3.13
2022-11-26T02:22:43.942Z,2.10
2022-11-26T02:25:13.311Z,2.40
2022-11-26T02:27:57.933Z,2.73
2022-11-26T02:30:24.723Z,2.13
2022-11-26T02:33:36.147Z,1.50
2022-11-26T02:36:09.843Z,1.03
2022-11-26T02:38:38.328Z,1.90
2022-11-26T02:41:05.149Z,2.80
2022-11-26T02:43:33.123Z,2.30
2022-11-26T02:46:02.268Z,2.20
2022-11-26T02:48:32.533Z,2.47
2022-11-26T02:51:02.397Z,2.83
2022-11-26T02:53:31.658Z,2.73
2022-11-26T02:56:04.025Z,2.57
2022-11-26T02:58:31.572Z,1.43
2022-11-26T03:00:59.790Z,2.00
2022-11-26T03:03:33.289Z,1.63
2022-11-26T03:06:03.196Z,1.33
2022-11-26T03:08:31.324Z,1.60
2022-11-26T03:10:58.144Z,2.30
2022-11-26T03:13:24.943Z,1.27
2022-11-26T03:15:51.754Z,1.70
2022-11-26T03:18:18.492Z,1.70
2022-11-26T03:20:45.134Z,1.50
2022-11-26T03:23:11.839Z,1.77
2022-11-26T03:25:38.614Z,1.90
2022-11-26T03:28:05.625Z,1.50
2022-11-26T03:30:32.446Z,2.20
2022-11-26T03:32:59.043Z,2.10
2022-11-26T03:35:25.670Z,2.23
2022-11-26T03:37:52.324Z,1.57
2022-11-26T03:40:19.535Z,0.73
2022-11-26T03:42:46.174Z,0.70
2022-11-26T03:45:13.222Z,0.63
2022-11-26T03:47:40.087Z,0.30
2022-11-26T03:50:07.640Z,0.93
2022-11-26T03:52:34.654Z,1.40
2022-11-26T03:55:01.252Z,2.60
2022-11-26T03:57:27.891Z,2.50
2022-11-26T03:59:54.603Z,2.80
2022-11-26T04:02:21.365Z,2.47
2022-11-26T04:04:48.056Z,1.30
2022-11-26T04:07:14.854Z,0.90
2022-11-26T04:09:41.485Z,0.90
2022-11-26T04:12:08.203Z,0.80
2022-11-26T04:14:34.932Z,2.47
2022-11-26T04:17:01.720Z,2.23
2022-11-26T04:19:28.401Z,2.13
2022-11-26T04:21:55.124Z,2.23
2022-11-26T04:24:21.750Z,1.73
2022-11-26T04:26:48.494Z,1.50
2022-11-26T04:29:15.154Z,2.40
2022-11-26T04:31:41.947Z,1.70
2022-11-26T04:34:08.644Z,1.90
2022-11-26T04:36:35.293Z,1.90
2022-11-26T04:39:01.965Z,1.20
2022-11-26T04:41:28.662Z,1.50
2022-11-26T04:43:55.307Z,1.60
2022-11-26T04:46:22.157Z,0.97
2022-11-26T04:48:48.913Z,2.40
2022-11-26T04:51:15.625Z,1.60
2022-11-26T04:53:42.344Z,1.53
2022-11-26T04:56:09.097Z,1.23
2022-11-26T04:58:36.074Z,1.87
2022-11-26T05:01:02.892Z,1.83
2022-11-26T05:03:30.063Z,3.20
2022-11-26T05:05:56.794Z,1.17
2022-11-26T05:08:23.549Z,3.03
2022-11-26T05:10:58.442Z,1.80
2022-11-26T05:13:25.111Z,2.37
2022-11-26T05:15:51.801Z,1.93
2022-11-26T05:18:18.441Z,0.73
2022-11-26T05:20:44.995Z,0.40
2022-11-26T05:23:11.746Z,2.23
2022-11-26T05:25:38.446Z,4.03
2022-11-26T05:28:05.180Z,4.00
2022-11-26T05:30:32.117Z,3.00
2022-11-26T05:32:58.726Z,2.60
2022-11-26T05:35:25.392Z,3.13
2022-11-26T05:37:52.077Z,3.40
2022-11-26T05:40:18.802Z,3.03
2022-11-26T05:42:45.376Z,3.17
2022-11-26T05:45:12.044Z,2.30
2022-11-26T05:47:38.629Z,2.50
2022-11-26T05:50:05.772Z,2.50
2022-11-26T05:52:32.376Z,2.53
2022-11-26T05:54:58.923Z,2.20
2022-11-26T05:57:25.536Z,2.13
2022-11-26T05:59:52.107Z,2.30
2022-11-26T06:02:18.827Z,1.33
2022-11-26T06:04:45.487Z,2.30
2022-11-26T06:07:12.120Z,2.67
2022-11-26T06:09:38.828Z,3.03
2022-11-26T06:12:05.706Z,2.00
2022-11-26T06:14:32.434Z,2.50
2022-11-26T06:16:59.242Z,3.07
2022-11-26T06:19:25.900Z,2.60
2022-11-26T06:21:52.484Z,2.27
2022-11-26T06:24:19.148Z,2.23
2022-11-26T06:26:45.707Z,1.43
2022-11-26T06:29:13.245Z,1.90
2022-11-26T06:31:39.863Z,2.43
2022-11-26T06:34:06.495Z,3.43
2022-11-26T06:36:33.104Z,2.83
2022-11-26T06:38:59.690Z,4.10
2022-11-26T06:41:26.246Z,3.83
2022-11-26T06:43:52.844Z,3.20
2022-11-26T06:46:19.503Z,3.73
2022-11-26T06:48:46.149Z,4.30
2022-11-26T06:51:14.933Z,4.70
2022-11-26T06:53:41.807Z,3.67
2022-11-26T06:56:17.737Z,5.73
2022-11-26T06:58:46.627Z,4.13
2022-11-26T07:01:17.483Z,4.50
2022-11-26T07:03:44.501Z,4.50
2022-11-26T07:06:17.875Z,4.00
2022-11-26T07:08:44.996Z,3.37
2022-11-26T07:11:11.762Z,3.27
2022-11-26T07:13:38.423Z,2.60
2022-11-26T07:16:05.877Z,3.67
2022-11-26T07:18:32.721Z,1.50
2022-11-26T07:21:05.653Z,2.23
2022-11-26T07:23:32.237Z,0.83
2022-11-26T07:26:00.056Z,0.90
2022-11-26T07:28:26.886Z,0.60
2022-11-26T07:30:53.586Z,0.87
2022-11-26T07:33:20.189Z,1.10
2022-11-26T07:35:46.784Z,2.00
2022-11-26T07:38:13.346Z,1.50
2022-11-26T07:40:39.858Z,20.63
2022-11-26T07:43:06.473Z,18.20
2022-11-26T07:45:36.267Z,9.80
2022-11-26T07:48:03.600Z,3.13
2022-11-26T07:50:30.954Z,2.30
2022-11-26T07:52:57.727Z,1.00
2022-11-26T07:55:24.353Z,1.07
2022-11-26T07:57:51.027Z,1.40
2022-11-26T08:00:18.341Z,5.33
2022-11-26T08:02:45.009Z,11.40
2022-11-26T08:05:11.622Z,12.63
2022-11-26T08:07:38.262Z,8.63
2022-11-26T08:10:05.465Z,3.87
2022-11-26T08:12:32.043Z,3.90
2022-11-26T08:14:58.640Z,1.80
2022-11-26T08:17:25.299Z,5.60
2022-11-26T08:19:51.964Z,7.60
2022-11-26T08:22:18.596Z,1.77
2022-11-26T08:24:45.162Z,3.67
2022-11-26T08:27:11.989Z,1.50
2022-11-26T08:29:38.590Z,0.50
2022-11-26T08:32:05.348Z,1.13
2022-11-26T08:34:33.220Z,1.00
2022-11-26T08:36:59.933Z,1.07
2022-11-26T08:39:26.616Z,0.50
2022-11-26T08:41:53.295Z,0.60
2022-11-26T08:44:20.518Z,0.43
2022-11-26T08:46:47.441Z,1.20
2022-11-26T08:49:18.020Z,1.10
2022-11-26T08:51:44.944Z,0.30
2022-11-26T08:54:12.628Z,0.40
2022-11-26T08:56:40.174Z,0.73
2022-11-26T08:59:06.759Z,0.70
2022-11-26T09:01:34.230Z,0.40
2022-11-26T09:04:03.186Z,0.50
2022-11-26T09:06:31.373Z,0.30
2022-11-26T09:09:13.874Z,0.40
2022-11-26T09:11:40.733Z,0.43
2022-11-26T09:14:07.569Z,0.30
2022-11-26T09:16:34.478Z,0.20
2022-11-26T09:19:01.690Z,0.83
2022-11-26T09:21:28.961Z,0.60
2022-11-26T09:23:55.730Z,0.53
2022-11-26T09:26:22.881Z,0.77
2022-11-26T09:28:49.630Z,0.60
2022-11-26T09:31:16.860Z,0.80
2022-11-26T09:33:44.367Z,0.70
2022-11-26T09:36:14.019Z,0.80
2022-11-26T09:38:40.974Z,0.67
2022-11-26T09:41:35.549Z,0.40
2022-11-26T09:44:17.031Z,0.60
2022-11-26T09:47:11.703Z,0.97
2022-11-26T09:50:13.781Z,0.53
2022-11-26T09:52:47.289Z,1.00
2022-11-26T09:55:17.751Z,0.93
2022-11-26T09:58:12.134Z,1.00
2022-11-26T10:00:49.919Z,0.97
2022-11-26T10:03:25.869Z,0.60
2022-11-26T10:05:52.496Z,0.60
2022-11-26T10:08:28.540Z,0.80
2022-11-26T10:11:17.508Z,0.70
2022-11-26T10:13:59.544Z,0.50
2022-11-26T10:16:42.591Z,0.63
2022-11-26T10:19:22.691Z,0.50
2022-11-26T10:22:00.390Z,0.77
2022-11-26T10:24:31.062Z,0.40
2022-11-26T10:27:00.924Z,1.23
2022-11-26T10:29:35.530Z,0.57
2022-11-26T10:32:11.749Z,0.60
2022-11-26T10:34:50.143Z,1.20
2022-11-26T10:37:17.201Z,0.40
2022-11-26T10:39:43.971Z,0.40
2022-11-26T10:42:21.815Z,0.40
2022-11-26T10:44:50.447Z,0.40
2022-11-26T10:47:24.411Z,0.60
2022-11-26T10:49:53.472Z,0.30
2022-11-26T10:52:27.187Z,0.40
2022-11-26T10:55:29.560Z,0.57
2022-11-26T10:58:08.231Z,0.20
2022-11-26T11:00:37.530Z,0.40
2022-11-26T11:03:44.611Z,0.53
2022-11-26T11:06:33.458Z,0.70
2022-11-26T11:09:00.149Z,0.37
2022-11-26T11:11:28.893Z,0.40
2022-11-26T11:13:55.890Z,0.77
2022-11-26T11:16:29.154Z,0.20
2022-11-26T11:18:57.977Z,0.33
2022-11-26T11:21:37.841Z,0.70
2022-11-26T11:24:11.075Z,1.60
2022-11-26T11:26:46.132Z,0.20
2022-11-26T11:29:34.884Z,0.50
2022-11-26T11:32:04.521Z,0.33
2022-11-26T11:34:39.234Z,0.50
2022-11-26T11:37:14.761Z,0.60
2022-11-26T11:39:42.635Z,1.23
2022-11-26T11:42:32.359Z,0.37
2022-11-26T11:45:00.428Z,2.27
2022-11-26T11:47:48.844Z,3.97
2022-11-26T11:50:29.456Z,1.83
2022-11-26T11:53:14.589Z,0.50
2022-11-26T11:56:11.790Z,0.40
2022-11-26T11:58:57.079Z,0.30
2022-11-26T12:01:43.532Z,0.50
2022-11-26T12:04:32.117Z,0.83
2022-11-26T12:07:05.129Z,0.80
2022-11-26T12:09:37.071Z,0.83
2022-11-26T12:12:18.360Z,0.30
2022-11-26T12:14:50.871Z,0.40
2022-11-26T12:18:00.863Z,0.40
2022-11-26T12:20:35.298Z,0.53
2022-11-26T12:23:27.818Z,0.40
2022-11-26T12:26:17.499Z,0.60
2022-11-26T12:29:03.990Z,3.97
2022-11-26T12:31:41.556Z,3.13
2022-11-26T12:34:16.053Z,0.37
2022-11-26T12:36:55.937Z,0.70
2022-11-26T12:39:59.211Z,0.30
2022-11-26T12:42:34.031Z,0.53
2022-11-26T12:45:17.911Z,0.50
2022-11-26T12:47:54.511Z,0.63
2022-11-26T12:50:27.891Z,1.10
2022-11-26T12:53:19.324Z,4.40
2022-11-26T12:55:56.402Z,3.37
2022-11-26T12:58:28.695Z,4.50
2022-11-26T13:00:57.054Z,1.00
2022-11-26T13:03:33.410Z,1.40
2022-11-26T13:06:35.851Z,2.93
2022-11-26T13:09:40.874Z,2.87
2022-11-26T13:12:46.762Z,1.77
2022-11-26T13:15:27.083Z,1.97
2022-11-26T13:17:54.831Z,3.57
2022-11-26T13:20:49.600Z,0.97
2022-11-26T13:23:41.102Z,2.50
2022-11-26T13:26:42.436Z,1.30
2022-11-26T13:29:28.767Z,0.73
2022-11-26T13:32:13.377Z,1.37
2022-11-26T13:35:00.915Z,0.70
2022-11-26T13:38:15.248Z,0.90
2022-11-26T13:41:13.528Z,0.60
2022-11-26T13:43:45.871Z,0.50
2022-11-26T13:46:22.996Z,0.40
2022-11-26T13:49:20.885Z,0.40
2022-11-26T13:51:50.951Z,0.30
2022-11-26T13:54:26.292Z,0.50
2022-11-26T13:57:15.305Z,1.47
2022-11-26T13:59:50.466Z,1.77
2022-11-26T14:02:36.606Z,9.67
2022-11-26T14:05:09.397Z,0.83
2022-11-26T14:07:36.486Z,0.73
2022-11-26T14:10:05.701Z,1.00
2022-11-26T14:13:03.689Z,4.07
2022-11-26T14:15:43.071Z,48.70
2022-11-26T14:18:11.890Z,28.17
2022-11-26T14:20:59.908Z,5.30
2022-11-26T14:23:42.970Z,10.43
2022-11-26T14:26:13.511Z,6.40
2022-11-26T14:28:40.257Z,2.03
2022-11-26T14:31:28.146Z,0.50
2022-11-26T14:33:57.069Z,0.50
2022-11-26T14:36:25.016Z,0.80
2022-11-26T14:39:08.203Z,0.50
2022-11-26T14:41:51.169Z,0.77
2022-11-26T14:44:19.150Z,0.50
2022-11-26T14:46:51.227Z,1.07
2022-11-26T14:49:21.041Z,0.43
2022-11-26T14:51:51.058Z,0.97
2022-11-26T14:54:33.122Z,0.80
2022-11-26T14:57:08.256Z,0.90
2022-11-26T14:59:35.168Z,1.50
2022-11-26T15:02:01.901Z,1.40
2022-11-26T15:04:31.040Z,1.50
2022-11-26T15:06:58.817Z,1.23
2022-11-26T15:09:27.618Z,1.63
2022-11-26T15:12:15.180Z,1.20
2022-11-26T15:14:54.724Z,1.40
2022-11-26T15:17:23.693Z,1.77
2022-11-26T15:19:52.658Z,2.60
2022-11-26T15:22:20.794Z,2.37
2022-11-26T15:24:54.401Z,2.90
2022-11-26T15:27:36.179Z,2.10
2022-11-26T15:30:04.686Z,2.40
2022-11-26T15:32:33.101Z,2.03
2022-11-26T15:35:02.533Z,1.00
2022-11-26T15:37:29.569Z,1.10
2022-11-26T15:40:25.423Z,1.70
2022-11-26T15:43:01.398Z,1.73
2022-11-26T15:45:38.974Z,0.60
2022-11-26T15:48:07.461Z,0.47
2022-11-26T15:50:36.766Z,1.00
2022-11-26T15:53:08.371Z,4.30
2022-11-26T15:55:36.661Z,4.10
2022-11-26T15:58:06.659Z,3.17
2022-11-26T16:00:42.660Z,2.63
2022-11-26T16:03:48.397Z,1.80
2022-11-26T16:06:31.602Z,1.03
2022-11-26T16:09:03.200Z,1.53
2022-11-26T16:11:31.919Z,2.30
2022-11-26T16:13:58.711Z,3.00
2022-11-26T16:16:26.387Z,2.10
2022-11-26T16:18:59.907Z,2.07
2022-11-26T16:21:32.420Z,1.60
2022-11-26T16:24:02.271Z,1.87
2022-11-26T16:26:29.802Z,4.00
2022-11-26T16:28:56.529Z,4.00
2022-11-26T16:31:23.640Z,4.03
2022-11-26T16:33:50.449Z,2.67
2022-11-26T16:36:20.461Z,2.73
2022-11-26T16:38:48.209Z,5.93
2022-11-26T16:41:16.481Z,3.10
2022-11-26T16:43:43.289Z,3.27
2022-11-26T16:46:20.989Z,2.23
2022-11-26T16:48:48.218Z,2.20
2022-11-26T16:51:15.750Z,0.83
2022-11-26T16:53:43.097Z,0.80
2022-11-26T16:56:18.784Z,1.33
2022-11-26T16:58:45.740Z,1.37
2022-11-26T17:01:12.561Z,0.70
2022-11-26T17:03:39.361Z,0.80
2022-11-26T17:06:13.501Z,1.20
2022-11-26T17:08:42.845Z,1.10
2022-11-26T17:11:13.968Z,1.20
2022-11-26T17:13:40.668Z,0.57
2022-11-26T17:16:14.291Z,0.40
2022-11-26T17:18:41.121Z,0.83
2022-11-26T17:21:07.870Z,1.50
2022-11-26T17:23:34.632Z,0.70
2022-11-26T17:26:01.950Z,0.90
2022-11-26T17:28:28.704Z,0.97
2022-11-26T17:30:56.078Z,1.30
2022-11-26T17:33:22.836Z,0.90
2022-11-26T17:35:49.590Z,0.90
2022-11-26T17:38:19.115Z,1.10
2022-11-26T17:40:46.561Z,1.70
2022-11-26T17:43:13.990Z,1.30
2022-11-26T17:45:41.275Z,1.23
2022-11-26T17:48:13.419Z,1.67
2022-11-26T17:50:41.021Z,1.57
2022-11-26T17:53:07.934Z,1.70
2022-11-26T17:55:34.666Z,3.87
2022-11-26T17:58:01.390Z,1.40
2022-11-26T18:00:29.493Z,1.60
2022-11-26T18:02:56.798Z,2.57
2022-11-26T18:05:24.263Z,1.53
2022-11-26T18:07:51.129Z,2.20
2022-11-26T18:10:19.372Z,2.27
2022-11-26T18:12:46.773Z,1.60
2022-11-26T18:15:18.721Z,1.90
2022-11-26T18:17:48.304Z,1.93
2022-11-26T18:20:18.298Z,2.10
2022-11-26T18:22:46.844Z,1.67
2022-11-26T18:25:14.271Z,2.40
2022-11-26T18:27:41.089Z,3.17
2022-11-26T18:30:09.308Z,3.10
2022-11-26T18:32:37.742Z,2.63
2022-11-26T18:35:05.851Z,2.37
2022-11-26T18:37:33.853Z,1.83
2022-11-26T18:40:00.729Z,2.27
2022-11-26T18:42:37.199Z,1.90
2022-11-26T18:45:06.769Z,1.77
2022-11-26T18:47:33.429Z,2.33
2022-11-26T18:50:00.188Z,1.67
2022-11-26T18:52:27.027Z,1.43
2022-11-26T18:54:53.845Z,2.13
2022-11-26T18:57:20.645Z,5.10
2022-11-26T18:59:47.511Z,16.67
2022-11-26T19:02:14.451Z,17.07
2022-11-26T19:04:41.410Z,13.33
2022-11-26T19:07:09.350Z,9.50
2022-11-26T19:09:37.736Z,4.80
2022-11-26T19:12:05.062Z,3.60
2022-11-26T19:14:31.789Z,3.57
2022-11-26T19:16:58.529Z,3.73
2022-11-26T19:19:25.738Z,2.70
2022-11-26T19:21:56.614Z,3.07
2022-11-26T19:24:26.073Z,1.97
2022-11-26T19:26:52.793Z,1.60
2022-11-26T19:29:19.836Z,1.20
2022-11-26T19:31:46.642Z,1.03
2022-11-26T19:34:14.882Z,1.23
2022-11-26T19:36:41.669Z,1.10
2022-11-26T19:39:08.992Z,1.00
2022-11-26T19:41:36.000Z,1.13
2022-11-26T19:44:04.159Z,1.83
2022-11-26T19:46:31.625Z,1.23
2022-11-26T19:48:58.538Z,1.40
2022-11-26T19:51:26.988Z,1.30
2022-11-26T19:53:55.498Z,2.13
2022-11-26T19:56:27.585Z,2.50
2022-11-26T19:58:54.842Z,3.97
2022-11-26T20:01:22.262Z,4.87
2022-11-26T20:03:49.989Z,5.50
2022-11-26T20:06:23.785Z,8.53
2022-11-26T20:08:50.551Z,6.67
2022-11-26T20:11:17.952Z,4.90
2022-11-26T20:13:46.422Z,4.00
2022-11-26T20:16:16.610Z,5.17
2022-11-26T20:18:43.806Z,4.67
2022-11-26T20:21:13.057Z,3.10
2022-11-26T20:23:40.108Z,3.50
2022-11-26T20:26:17.342Z,2.57
2022-11-26T20:28:44.198Z,3.00
2022-11-26T20:31:11.449Z,2.33
2022-11-26T20:33:38.262Z,2.00
2022-11-26T20:36:07.012Z,1.87
2022-11-26T20:38:33.915Z,1.20
2022-11-26T20:41:00.694Z,1.03
2022-11-26T20:43:27.401Z,1.80
2022-11-26T20:46:04.550Z,0.97
2022-11-26T20:48:32.301Z,1.17
2022-11-26T20:51:06.854Z,1.60
2022-11-26T20:53:35.542Z,1.50
2022-11-26T20:56:02.639Z,1.20
2022-11-26T20:58:29.691Z,3.90
2022-11-26T21:00:56.840Z,2.63
2022-11-26T21:03:25.287Z,2.97
2022-11-26T21:05:52.068Z,3.37
2022-11-26T21:08:19.743Z,2.20
2022-11-26T21:10:46.440Z,2.37
2022-11-26T21:13:14.929Z,2.03
2022-11-26T21:15:42.480Z,2.47
2022-11-26T21:18:09.919Z,1.70
2022-11-26T21:20:41.239Z,1.77
2022-11-26T21:23:08.638Z,2.47
2022-11-26T21:25:39.007Z,1.80
2022-11-26T21:28:06.730Z,1.40
2022-11-26T21:30:34.261Z,1.50
2022-11-26T21:33:07.501Z,1.50
2022-11-26T21:35:35.792Z,2.27
2022-11-26T21:38:02.429Z,2.20
2022-11-26T21:40:29.385Z,2.00
2022-11-26T21:42:56.133Z,1.70
2022-11-26T21:45:22.954Z,1.10
2022-11-26T21:47:51.127Z,1.57
2022-11-26T21:50:18.887Z,1.63
2022-11-26T21:52:45.805Z,1.60
2022-11-26T21:55:12.523Z,1.50
2022-11-26T21:57:39.109Z,1.73
2022-11-26T22:00:06.504Z,2.90
2022-11-26T22:02:33.156Z,2.27
2022-11-26T22:04:59.728Z,2.20
2022-11-26T22:07:26.571Z,2.43
2022-11-26T22:09:53.300Z,2.57
2022-11-26T22:12:19.890Z,2.77
2022-11-26T22:14:47.009Z,2.60
2022-11-26T22:17:13.605Z,2.77
2022-11-26T22:19:40.306Z,2.40
2022-11-26T22:22:07.089Z,3.00
2022-11-26T22:24:33.742Z,2.33
2022-11-26T22:27:00.304Z,2.10
2022-11-26T22:29:26.889Z,2.20
2022-11-26T22:31:53.490Z,1.60
2022-11-26T22:34:24.681Z,1.53
2022-11-26T22:36:51.362Z,1.37
2022-11-26T22:39:18.631Z,1.63
2022-11-26T22:41:46.879Z,1.67
2022-11-26T22:44:13.955Z,1.40
2022-11-26T22:46:40.572Z,1.67
2022-11-26T22:49:07.418Z,1.70
2022-11-26T22:51:35.094Z,2.67
2022-11-26T22:54:04.653Z,1.50
2022-11-26T22:56:31.989Z,1.97
2022-11-26T22:58:58.657Z,1.60
2022-11-26T23:01:27.809Z,2.23
2022-11-26T23:03:55.875Z,2.20
2022-11-26T23:06:24.414Z,3.60
2022-11-26T23:08:51.834Z,4.17
2022-11-26T23:11:25.100Z,3.70
2022-11-26T23:13:52.885Z,2.77
2022-11-26T23:16:20.878Z,3.37
2022-11-26T23:18:48.062Z,2.10
2022-11-26T23:21:16.931Z,2.23
2022-11-26T23:23:43.808Z,2.30
2022-11-26T23:26:12.476Z,2.00
2022-11-26T23:28:39.167Z,3.00
2022-11-26T23:31:09.881Z,2.37
2022-11-26T23:33:36.555Z,1.60
2022-11-26T23:36:03.609Z,2.53
2022-11-26T23:38:32.131Z,1.40
2022-11-26T23:41:02.402Z,1.50
2022-11-26T23:43:30.523Z,1.57
2022-11-26T23:46:13.427Z,1.27
2022-11-26T23:48:40.156Z,1.53
2022-11-26T23:51:08.926Z,1.20
2022-11-26T23:53:37.204Z,1.37
2022-11-26T23:56:05.109Z,1.40
2022-11-26T23:58:31.954Z,1.83
